sensor_id;sensor_type;location;lat;lon;timestamp;P1;durP1;ratioP1;P2;durP2;ratioP2
74892;SDS011;63446;56.272;43.922;2023-12-29T00:02:21;4.80;;;1.50;;
74892;SDS011;63446;56.272;43.922;2023-12-29T00:04:47;4.93;;;1.65;;
74892;SDS011;63446;56.272;43.922;2023-12-29T00:07:13;5.18;;;1.63;;
74892;SDS011;63446;56.272;43.922;2023-12-29T00:09:39;5.83;;;2.43;;
74892;SDS011;63446;56.272;43.922;2023-12-29T00:12:06;5.38;;;1.92;;
74892;SDS011;63446;56.272;43.922;2023-12-29T00:14:33;4.85;;;1.63;;
74892;SDS011;63446;56.272;43.922;2023-12-29T00:17:02;8.18;;;1.70;;
74892;SDS011;63446;56.272;43.922;2023-12-29T00:19:28;6.80;;;2.05;;
74892;SDS011;63446;56.272;43.922;2023-12-29T00:21:54;6.90;;;1.93;;
74892;SDS011;63446;56.272;43.922;2023-12-29T00:24:20;7.85;;;2.00;;
74892;SDS011;63446;56.272;43.922;2023-12-29T00:26:46;7.53;;;2.33;;
74892;SDS011;63446;56.272;43.922;2023-12-29T00:29:14;8.57;;;1.53;;
74892;SDS011;63446;56.272;43.922;2023-12-29T00:31:40;4.93;;;1.80;;
74892;SDS011;63446;56.272;43.922;2023-12-29T00:34:07;7.63;;;2.33;;
74892;SDS011;63446;56.272;43.922;2023-12-29T00:36:33;5.88;;;1.80;;
74892;SDS011;63446;56.272;43.922;2023-12-29T00:38:59;4.97;;;1.77;;
74892;SDS011;63446;56.272;43.922;2023-12-29T00:41:25;5.32;;;1.70;;
74892;SDS011;63446;56.272;43.922;2023-12-29T00:43:51;6.05;;;1.92;;
74892;SDS011;63446;56.272;43.922;2023-12-29T00:46:16;6.90;;;1.90;;
74892;SDS011;63446;56.272;43.922;2023-12-29T00:48:43;7.13;;;1.90;;
74892;SDS011;63446;56.272;43.922;2023-12-29T00:51:09;5.25;;;1.98;;
74892;SDS011;63446;56.272;43.922;2023-12-29T00:53:36;5.13;;;1.75;;
74892;SDS011;63446;56.272;43.922;2023-12-29T00:56:02;5.70;;;1.92;;
74892;SDS011;63446;56.272;43.922;2023-12-29T00:58:28;7.03;;;2.35;;
74892;SDS011;63446;56.272;43.922;2023-12-29T01:00:55;7.63;;;2.20;;
74892;SDS011;63446;56.272;43.922;2023-12-29T01:03:22;10.13;;;2.33;;
74892;SDS011;63446;56.272;43.922;2023-12-29T01:05:48;6.15;;;2.10;;
74892;SDS011;63446;56.272;43.922;2023-12-29T01:08:14;7.57;;;2.80;;
74892;SDS011;63446;56.272;43.922;2023-12-29T01:10:40;8.73;;;2.70;;
74892;SDS011;63446;56.272;43.922;2023-12-29T01:13:06;10.30;;;2.83;;
74892;SDS011;63446;56.272;43.922;2023-12-29T01:15:33;7.00;;;2.20;;
74892;SDS011;63446;56.272;43.922;2023-12-29T01:17:59;7.10;;;2.20;;
74892;SDS011;63446;56.272;43.922;2023-12-29T01:20:25;7.05;;;2.03;;
74892;SDS011;63446;56.272;43.922;2023-12-29T01:22:51;6.15;;;2.20;;
74892;SDS011;63446;56.272;43.922;2023-12-29T01:25:16;5.90;;;1.97;;
74892;SDS011;63446;56.272;43.922;2023-12-29T01:27:44;5.18;;;1.80;;
74892;SDS011;63446;56.272;43.922;2023-12-29T01:30:10;6.35;;;2.33;;
74892;SDS011;63446;56.272;43.922;2023-12-29T01:32:38;6.90;;;2.30;;
74892;SDS011;63446;56.272;43.922;2023-12-29T01:35:04;7.27;;;2.40;;
74892;SDS011;63446;56.272;43.922;2023-12-29T01:37:31;7.22;;;2.22;;
74892;SDS011;63446;56.272;43.922;2023-12-29T01:39:57;8.68;;;2.40;;
74892;SDS011;63446;56.272;43.922;2023-12-29T01:42:24;6.72;;;2.55;;
74892;SDS011;63446;56.272;43.922;2023-12-29T01:44:50;7.22;;;2.67;;
74892;SDS011;63446;56.272;43.922;2023-12-29T01:47:21;6.87;;;2.30;;
74892;SDS011;63446;56.272;43.922;2023-12-29T01:49:48;6.63;;;2.40;;
74892;SDS011;63446;56.272;43.922;2023-12-29T01:52:16;6.55;;;2.42;;
74892;SDS011;63446;56.272;43.922;2023-12-29T01:54:45;7.00;;;2.72;;
74892;SDS011;63446;56.272;43.922;2023-12-29T01:57:11;7.90;;;2.80;;
74892;SDS011;63446;56.272;43.922;2023-12-29T01:59:38;6.10;;;2.27;;
74892;SDS011;63446;56.272;43.922;2023-12-29T02:02:05;8.02;;;2.55;;
74892;SDS011;63446;56.272;43.922;2023-12-29T02:04:31;5.72;;;2.28;;
74892;SDS011;63446;56.272;43.922;2023-12-29T02:06:57;12.05;;;2.70;;
74892;SDS011;63446;56.272;43.922;2023-12-29T02:09:25;8.82;;;2.72;;
74892;SDS011;63446;56.272;43.922;2023-12-29T02:11:51;8.00;;;2.67;;
74892;SDS011;63446;56.272;43.922;2023-12-29T02:14:18;7.85;;;2.47;;
74892;SDS011;63446;56.272;43.922;2023-12-29T02:16:50;6.20;;;2.15;;
74892;SDS011;63446;56.272;43.922;2023-12-29T02:19:41;6.75;;;2.53;;
74892;SDS011;63446;56.272;43.922;2023-12-29T02:22:11;9.23;;;3.03;;
74892;SDS011;63446;56.272;43.922;2023-12-29T02:24:38;7.90;;;2.72;;
74892;SDS011;63446;56.272;43.922;2023-12-29T02:32:36;9.20;;;2.75;;
74892;SDS011;63446;56.272;43.922;2023-12-29T02:35:09;7.30;;;3.07;;
74892;SDS011;63446;56.272;43.922;2023-12-29T02:37:36;6.70;;;2.47;;
74892;SDS011;63446;56.272;43.922;2023-12-29T02:40:05;7.72;;;2.95;;
74892;SDS011;63446;56.272;43.922;2023-12-29T02:42:33;7.35;;;3.15;;
74892;SDS011;63446;56.272;43.922;2023-12-29T02:44:59;6.82;;;2.78;;
74892;SDS011;63446;56.272;43.922;2023-12-29T02:47:26;8.33;;;3.10;;
74892;SDS011;63446;56.272;43.922;2023-12-29T02:49:53;7.72;;;3.20;;
74892;SDS011;63446;56.272;43.922;2023-12-29T02:52:20;8.80;;;3.35;;
74892;SDS011;63446;56.272;43.922;2023-12-29T02:54:47;7.30;;;2.70;;
74892;SDS011;63446;56.272;43.922;2023-12-29T02:57:13;7.88;;;2.80;;
74892;SDS011;63446;56.272;43.922;2023-12-29T02:59:38;7.83;;;3.17;;
74892;SDS011;63446;56.272;43.922;2023-12-29T03:02:05;8.68;;;3.08;;
74892;SDS011;63446;56.272;43.922;2023-12-29T03:04:31;7.90;;;2.90;;
74892;SDS011;63446;56.272;43.922;2023-12-29T03:06:57;8.60;;;3.05;;
74892;SDS011;63446;56.272;43.922;2023-12-29T03:09:24;9.57;;;3.13;;
74892;SDS011;63446;56.272;43.922;2023-12-29T03:11:50;8.50;;;3.30;;
74892;SDS011;63446;56.272;43.922;2023-12-29T03:14:17;7.53;;;2.83;;
74892;SDS011;63446;56.272;43.922;2023-12-29T03:16:42;9.02;;;3.78;;
74892;SDS011;63446;56.272;43.922;2023-12-29T03:19:08;9.18;;;3.55;;
74892;SDS011;63446;56.272;43.922;2023-12-29T03:21:34;9.65;;;2.80;;
74892;SDS011;63446;56.272;43.922;2023-12-29T03:24:00;9.50;;;3.80;;
74892;SDS011;63446;56.272;43.922;2023-12-29T03:26:26;9.80;;;3.63;;
74892;SDS011;63446;56.272;43.922;2023-12-29T03:28:51;8.23;;;3.03;;
74892;SDS011;63446;56.272;43.922;2023-12-29T03:31:18;7.70;;;3.33;;
74892;SDS011;63446;56.272;43.922;2023-12-29T03:33:43;11.60;;;3.72;;
74892;SDS011;63446;56.272;43.922;2023-12-29T03:36:09;8.50;;;3.00;;
74892;SDS011;63446;56.272;43.922;2023-12-29T03:38:35;8.63;;;3.33;;
74892;SDS011;63446;56.272;43.922;2023-12-29T03:41:02;11.07;;;3.35;;
74892;SDS011;63446;56.272;43.922;2023-12-29T03:43:29;9.57;;;3.40;;
74892;SDS011;63446;56.272;43.922;2023-12-29T03:45:54;10.20;;;3.53;;
74892;SDS011;63446;56.272;43.922;2023-12-29T03:48:20;9.65;;;3.60;;
74892;SDS011;63446;56.272;43.922;2023-12-29T03:50:47;10.70;;;3.55;;
74892;SDS011;63446;56.272;43.922;2023-12-29T03:53:15;10.03;;;3.40;;
74892;SDS011;63446;56.272;43.922;2023-12-29T03:55:41;7.57;;;3.03;;
74892;SDS011;63446;56.272;43.922;2023-12-29T03:58:07;8.23;;;3.17;;
74892;SDS011;63446;56.272;43.922;2023-12-29T04:00:33;10.30;;;3.07;;
74892;SDS011;63446;56.272;43.922;2023-12-29T04:02:58;9.13;;;3.30;;
74892;SDS011;63446;56.272;43.922;2023-12-29T04:05:24;9.13;;;3.57;;
74892;SDS011;63446;56.272;43.922;2023-12-29T04:07:50;8.98;;;3.60;;
74892;SDS011;63446;56.272;43.922;2023-12-29T04:10:16;7.72;;;3.40;;
74892;SDS011;63446;56.272;43.922;2023-12-29T04:12:43;10.47;;;3.50;;
74892;SDS011;63446;56.272;43.922;2023-12-29T04:15:09;11.80;;;4.20;;
74892;SDS011;63446;56.272;43.922;2023-12-29T04:17:35;9.10;;;3.30;;
74892;SDS011;63446;56.272;43.922;2023-12-29T04:20:02;9.65;;;3.50;;
74892;SDS011;63446;56.272;43.922;2023-12-29T04:22:31;11.10;;;3.50;;
74892;SDS011;63446;56.272;43.922;2023-12-29T04:24:59;8.73;;;3.33;;
74892;SDS011;63446;56.272;43.922;2023-12-29T04:27:25;10.50;;;3.53;;
74892;SDS011;63446;56.272;43.922;2023-12-29T04:29:51;9.43;;;3.40;;
74892;SDS011;63446;56.272;43.922;2023-12-29T04:32:18;7.43;;;3.05;;
74892;SDS011;63446;56.272;43.922;2023-12-29T04:34:44;11.75;;;3.60;;
74892;SDS011;63446;56.272;43.922;2023-12-29T04:37:10;10.23;;;3.50;;
74892;SDS011;63446;56.272;43.922;2023-12-29T04:39:38;11.53;;;3.63;;
74892;SDS011;63446;56.272;43.922;2023-12-29T04:42:03;9.23;;;3.67;;
74892;SDS011;63446;56.272;43.922;2023-12-29T04:44:29;10.15;;;3.45;;
74892;SDS011;63446;56.272;43.922;2023-12-29T04:46:56;12.30;;;4.10;;
74892;SDS011;63446;56.272;43.922;2023-12-29T04:49:22;11.05;;;3.42;;
74892;SDS011;63446;56.272;43.922;2023-12-29T04:51:47;12.63;;;3.90;;
74892;SDS011;63446;56.272;43.922;2023-12-29T04:54:14;8.80;;;3.33;;
74892;SDS011;63446;56.272;43.922;2023-12-29T04:56:40;10.27;;;3.50;;
74892;SDS011;63446;56.272;43.922;2023-12-29T04:59:06;8.93;;;3.25;;
74892;SDS011;63446;56.272;43.922;2023-12-29T05:01:33;8.80;;;3.53;;
74892;SDS011;63446;56.272;43.922;2023-12-29T05:03:59;10.50;;;3.67;;
74892;SDS011;63446;56.272;43.922;2023-12-29T05:06:25;10.40;;;3.70;;
74892;SDS011;63446;56.272;43.922;2023-12-29T05:08:50;10.82;;;3.40;;
74892;SDS011;63446;56.272;43.922;2023-12-29T05:11:16;9.70;;;3.85;;
74892;SDS011;63446;56.272;43.922;2023-12-29T05:13:42;10.47;;;3.37;;
74892;SDS011;63446;56.272;43.922;2023-12-29T05:16:08;10.52;;;3.13;;
74892;SDS011;63446;56.272;43.922;2023-12-29T05:18:34;11.17;;;3.20;;
74892;SDS011;63446;56.272;43.922;2023-12-29T05:21:00;9.35;;;3.42;;
74892;SDS011;63446;56.272;43.922;2023-12-29T05:23:26;11.43;;;3.97;;
74892;SDS011;63446;56.272;43.922;2023-12-29T05:25:52;7.47;;;2.75;;
74892;SDS011;63446;56.272;43.922;2023-12-29T05:28:19;8.93;;;3.30;;
74892;SDS011;63446;56.272;43.922;2023-12-29T05:30:45;7.53;;;3.33;;
74892;SDS011;63446;56.272;43.922;2023-12-29T05:33:11;8.43;;;3.03;;
74892;SDS011;63446;56.272;43.922;2023-12-29T05:35:36;11.43;;;5.68;;
74892;SDS011;63446;56.272;43.922;2023-12-29T05:38:02;10.17;;;3.40;;
74892;SDS011;63446;56.272;43.922;2023-12-29T05:40:28;8.60;;;3.50;;
74892;SDS011;63446;56.272;43.922;2023-12-29T05:42:55;10.35;;;3.45;;
74892;SDS011;63446;56.272;43.922;2023-12-29T05:45:21;10.82;;;3.75;;
74892;SDS011;63446;56.272;43.922;2023-12-29T05:47:47;8.68;;;3.42;;
74892;SDS011;63446;56.272;43.922;2023-12-29T05:50:13;11.07;;;3.60;;
74892;SDS011;63446;56.272;43.922;2023-12-29T05:52:42;9.55;;;4.20;;
74892;SDS011;63446;56.272;43.922;2023-12-29T05:55:07;11.13;;;3.97;;
74892;SDS011;63446;56.272;43.922;2023-12-29T05:57:37;12.93;;;4.28;;
74892;SDS011;63446;56.272;43.922;2023-12-29T06:00:06;12.07;;;4.03;;
74892;SDS011;63446;56.272;43.922;2023-12-29T06:02:38;13.07;;;4.15;;
74892;SDS011;63446;56.272;43.922;2023-12-29T06:05:05;11.07;;;3.80;;
74892;SDS011;63446;56.272;43.922;2023-12-29T06:07:31;10.90;;;3.90;;
74892;SDS011;63446;56.272;43.922;2023-12-29T06:09:56;8.93;;;3.83;;
74892;SDS011;63446;56.272;43.922;2023-12-29T06:12:22;8.82;;;3.55;;
74892;SDS011;63446;56.272;43.922;2023-12-29T06:14:48;8.13;;;3.23;;
74892;SDS011;63446;56.272;43.922;2023-12-29T06:17:14;10.75;;;3.75;;
74892;SDS011;63446;56.272;43.922;2023-12-29T06:19:40;11.83;;;3.50;;
74892;SDS011;63446;56.272;43.922;2023-12-29T06:22:06;11.07;;;3.85;;
74892;SDS011;63446;56.272;43.922;2023-12-29T06:24:43;11.23;;;3.97;;
74892;SDS011;63446;56.272;43.922;2023-12-29T06:27:12;10.40;;;3.65;;
74892;SDS011;63446;56.272;43.922;2023-12-29T06:29:40;11.97;;;4.10;;
74892;SDS011;63446;56.272;43.922;2023-12-29T06:32:07;14.35;;;4.20;;
74892;SDS011;63446;56.272;43.922;2023-12-29T06:34:55;10.45;;;3.53;;
74892;SDS011;63446;56.272;43.922;2023-12-29T06:37:21;10.30;;;4.13;;
74892;SDS011;63446;56.272;43.922;2023-12-29T06:39:47;12.98;;;4.15;;
74892;SDS011;63446;56.272;43.922;2023-12-29T06:42:14;14.50;;;4.57;;
74892;SDS011;63446;56.272;43.922;2023-12-29T06:44:40;10.27;;;3.63;;
74892;SDS011;63446;56.272;43.922;2023-12-29T06:47:05;10.63;;;3.88;;
74892;SDS011;63446;56.272;43.922;2023-12-29T06:49:35;11.97;;;3.10;;
74892;SDS011;63446;56.272;43.922;2023-12-29T06:52:01;10.85;;;3.38;;
74892;SDS011;63446;56.272;43.922;2023-12-29T06:54:28;11.05;;;3.25;;
74892;SDS011;63446;56.272;43.922;2023-12-29T06:56:53;12.50;;;3.92;;
74892;SDS011;63446;56.272;43.922;2023-12-29T06:59:20;10.40;;;3.60;;
74892;SDS011;63446;56.272;43.922;2023-12-29T07:01:46;9.70;;;3.45;;
74892;SDS011;63446;56.272;43.922;2023-12-29T07:04:14;8.93;;;2.88;;
74892;SDS011;63446;56.272;43.922;2023-12-29T07:06:41;8.90;;;3.15;;
74892;SDS011;63446;56.272;43.922;2023-12-29T07:09:07;9.20;;;2.92;;
74892;SDS011;63446;56.272;43.922;2023-12-29T07:11:35;9.13;;;3.10;;
74892;SDS011;63446;56.272;43.922;2023-12-29T07:14:02;10.13;;;2.92;;
74892;SDS011;63446;56.272;43.922;2023-12-29T07:16:29;8.40;;;3.22;;
74892;SDS011;63446;56.272;43.922;2023-12-29T07:18:55;11.48;;;3.83;;
74892;SDS011;63446;56.272;43.922;2023-12-29T07:21:21;10.20;;;3.28;;
74892;SDS011;63446;56.272;43.922;2023-12-29T07:23:47;10.53;;;3.60;;
74892;SDS011;63446;56.272;43.922;2023-12-29T07:26:13;10.02;;;3.58;;
74892;SDS011;63446;56.272;43.922;2023-12-29T07:28:38;10.83;;;4.13;;
74892;SDS011;63446;56.272;43.922;2023-12-29T07:31:05;11.60;;;3.83;;
74892;SDS011;63446;56.272;43.922;2023-12-29T07:33:31;10.60;;;3.58;;
74892;SDS011;63446;56.272;43.922;2023-12-29T07:35:57;12.40;;;3.60;;
74892;SDS011;63446;56.272;43.922;2023-12-29T07:38:24;9.30;;;3.80;;
74892;SDS011;63446;56.272;43.922;2023-12-29T07:40:50;11.10;;;3.90;;
74892;SDS011;63446;56.272;43.922;2023-12-29T07:43:16;8.95;;;3.70;;
74892;SDS011;63446;56.272;43.922;2023-12-29T07:45:43;8.70;;;3.65;;
74892;SDS011;63446;56.272;43.922;2023-12-29T07:48:09;8.83;;;3.30;;
74892;SDS011;63446;56.272;43.922;2023-12-29T07:50:36;9.10;;;3.70;;
74892;SDS011;63446;56.272;43.922;2023-12-29T07:53:04;7.72;;;3.30;;
74892;SDS011;63446;56.272;43.922;2023-12-29T07:55:32;8.75;;;3.38;;
74892;SDS011;63446;56.272;43.922;2023-12-29T07:57:59;8.07;;;3.25;;
74892;SDS011;63446;56.272;43.922;2023-12-29T08:00:26;9.77;;;3.30;;
74892;SDS011;63446;56.272;43.922;2023-12-29T08:02:52;7.78;;;2.92;;
74892;SDS011;63446;56.272;43.922;2023-12-29T08:05:17;8.97;;;2.90;;
74892;SDS011;63446;56.272;43.922;2023-12-29T08:07:43;8.80;;;2.80;;
74892;SDS011;63446;56.272;43.922;2023-12-29T08:10:09;8.38;;;2.58;;
74892;SDS011;63446;56.272;43.922;2023-12-29T08:12:35;9.00;;;3.28;;
74892;SDS011;63446;56.272;43.922;2023-12-29T08:15:02;9.77;;;3.40;;
74892;SDS011;63446;56.272;43.922;2023-12-29T08:17:32;10.05;;;3.40;;
74892;SDS011;63446;56.272;43.922;2023-12-29T08:19:59;9.82;;;3.42;;
74892;SDS011;63446;56.272;43.922;2023-12-29T08:22:27;7.73;;;2.93;;
74892;SDS011;63446;56.272;43.922;2023-12-29T08:24:55;8.98;;;2.90;;
74892;SDS011;63446;56.272;43.922;2023-12-29T08:27:24;9.87;;;3.60;;
74892;SDS011;63446;56.272;43.922;2023-12-29T08:29:54;10.15;;;3.50;;
74892;SDS011;63446;56.272;43.922;2023-12-29T08:32:20;6.90;;;3.10;;
74892;SDS011;63446;56.272;43.922;2023-12-29T08:34:47;8.95;;;3.40;;
74892;SDS011;63446;56.272;43.922;2023-12-29T08:37:12;11.27;;;4.10;;
74892;SDS011;63446;56.272;43.922;2023-12-29T08:39:41;9.07;;;4.20;;
74892;SDS011;63446;56.272;43.922;2023-12-29T08:42:07;7.70;;;3.08;;
74892;SDS011;63446;56.272;43.922;2023-12-29T08:44:33;6.50;;;2.67;;
74892;SDS011;63446;56.272;43.922;2023-12-29T08:46:59;7.50;;;3.10;;
74892;SDS011;63446;56.272;43.922;2023-12-29T08:49:25;8.55;;;3.33;;
74892;SDS011;63446;56.272;43.922;2023-12-29T08:51:51;7.57;;;3.00;;
74892;SDS011;63446;56.272;43.922;2023-12-29T08:54:17;11.65;;;3.03;;
74892;SDS011;63446;56.272;43.922;2023-12-29T08:56:46;10.52;;;3.35;;
74892;SDS011;63446;56.272;43.922;2023-12-29T08:59:15;8.07;;;3.10;;
74892;SDS011;63446;56.272;43.922;2023-12-29T09:01:40;6.80;;;2.97;;
74892;SDS011;63446;56.272;43.922;2023-12-29T09:04:07;8.02;;;3.20;;
74892;SDS011;63446;56.272;43.922;2023-12-29T09:06:33;11.05;;;4.00;;
74892;SDS011;63446;56.272;43.922;2023-12-29T09:09:00;11.10;;;4.40;;
74892;SDS011;63446;56.272;43.922;2023-12-29T09:11:26;11.98;;;4.15;;
74892;SDS011;63446;56.272;43.922;2023-12-29T09:13:52;13.95;;;4.82;;
74892;SDS011;63446;56.272;43.922;2023-12-29T09:16:18;8.73;;;3.10;;
74892;SDS011;63446;56.272;43.922;2023-12-29T09:18:44;12.55;;;4.10;;
74892;SDS011;63446;56.272;43.922;2023-12-29T09:21:10;14.35;;;4.28;;
74892;SDS011;63446;56.272;43.922;2023-12-29T09:23:35;17.42;;;6.05;;
74892;SDS011;63446;56.272;43.922;2023-12-29T09:26:04;11.27;;;4.22;;
74892;SDS011;63446;56.272;43.922;2023-12-29T09:28:33;11.65;;;3.88;;
74892;SDS011;63446;56.272;43.922;2023-12-29T09:30:59;9.77;;;3.20;;
74892;SDS011;63446;56.272;43.922;2023-12-29T09:33:26;8.00;;;3.13;;
74892;SDS011;63446;56.272;43.922;2023-12-29T09:35:53;8.48;;;2.97;;
74892;SDS011;63446;56.272;43.922;2023-12-29T09:38:19;9.30;;;3.05;;
74892;SDS011;63446;56.272;43.922;2023-12-29T09:40:45;7.83;;;2.83;;
74892;SDS011;63446;56.272;43.922;2023-12-29T09:43:13;7.72;;;2.90;;
74892;SDS011;63446;56.272;43.922;2023-12-29T09:45:39;8.73;;;3.10;;
74892;SDS011;63446;56.272;43.922;2023-12-29T09:48:12;6.47;;;2.90;;
74892;SDS011;63446;56.272;43.922;2023-12-29T09:50:41;8.45;;;2.95;;
74892;SDS011;63446;56.272;43.922;2023-12-29T09:53:09;10.33;;;3.33;;
74892;SDS011;63446;56.272;43.922;2023-12-29T09:55:37;8.57;;;3.40;;
74892;SDS011;63446;56.272;43.922;2023-12-29T09:58:04;8.40;;;3.30;;
74892;SDS011;63446;56.272;43.922;2023-12-29T10:00:32;9.55;;;2.97;;
74892;SDS011;63446;56.272;43.922;2023-12-29T10:02:59;11.35;;;3.40;;
74892;SDS011;63446;56.272;43.922;2023-12-29T10:05:27;12.33;;;3.77;;
74892;SDS011;63446;56.272;43.922;2023-12-29T10:07:53;11.20;;;3.47;;
74892;SDS011;63446;56.272;43.922;2023-12-29T10:10:20;8.60;;;3.38;;
74892;SDS011;63446;56.272;43.922;2023-12-29T10:12:48;8.40;;;2.75;;
74892;SDS011;63446;56.272;43.922;2023-12-29T10:15:20;10.30;;;3.13;;
74892;SDS011;63446;56.272;43.922;2023-12-29T10:20:50;7.00;;;2.70;;
74892;SDS011;63446;56.272;43.922;2023-12-29T10:24:11;6.72;;;2.60;;
74892;SDS011;63446;56.272;43.922;2023-12-29T10:26:35;12.77;;;4.70;;
74892;SDS011;63446;56.272;43.922;2023-12-29T10:29:02;22.13;;;7.20;;
74892;SDS011;63446;56.272;43.922;2023-12-29T10:31:28;14.13;;;5.05;;
74892;SDS011;63446;56.272;43.922;2023-12-29T10:34:16;23.60;;;7.82;;
74892;SDS011;63446;56.272;43.922;2023-12-29T10:36:51;31.83;;;11.40;;
74892;SDS011;63446;56.272;43.922;2023-12-29T10:39:54;23.70;;;7.47;;
74892;SDS011;63446;56.272;43.922;2023-12-29T10:42:21;22.70;;;7.75;;
74892;SDS011;63446;56.272;43.922;2023-12-29T10:44:47;20.02;;;6.60;;
74892;SDS011;63446;56.272;43.922;2023-12-29T10:47:13;14.40;;;5.57;;
74892;SDS011;63446;56.272;43.922;2023-12-29T10:49:40;27.05;;;9.13;;
74892;SDS011;63446;56.272;43.922;2023-12-29T10:52:13;23.48;;;8.88;;
74892;SDS011;63446;56.272;43.922;2023-12-29T10:54:43;17.33;;;6.18;;
74892;SDS011;63446;56.272;43.922;2023-12-29T10:57:12;11.40;;;3.97;;
74892;SDS011;63446;56.272;43.922;2023-12-29T10:59:42;16.67;;;5.65;;
74892;SDS011;63446;56.272;43.922;2023-12-29T11:02:11;18.70;;;5.70;;
74892;SDS011;63446;56.272;43.922;2023-12-29T11:04:40;11.40;;;4.45;;
74892;SDS011;63446;56.272;43.922;2023-12-29T11:07:07;11.40;;;4.28;;
74892;SDS011;63446;56.272;43.922;2023-12-29T11:09:33;18.47;;;6.23;;
74892;SDS011;63446;56.272;43.922;2023-12-29T11:12:00;15.85;;;5.20;;
74892;SDS011;63446;56.272;43.922;2023-12-29T11:14:29;21.77;;;7.10;;
74892;SDS011;63446;56.272;43.922;2023-12-29T11:16:56;15.65;;;5.47;;
74892;SDS011;63446;56.272;43.922;2023-12-29T11:19:27;16.27;;;4.60;;
74892;SDS011;63446;56.272;43.922;2023-12-29T11:21:56;15.45;;;5.10;;
74892;SDS011;63446;56.272;43.922;2023-12-29T11:24:23;17.85;;;6.35;;
74892;SDS011;63446;56.272;43.922;2023-12-29T11:26:49;10.35;;;3.55;;
74892;SDS011;63446;56.272;43.922;2023-12-29T11:29:17;13.40;;;4.05;;
74892;SDS011;63446;56.272;43.922;2023-12-29T11:31:43;11.27;;;4.17;;
74892;SDS011;63446;56.272;43.922;2023-12-29T11:34:24;11.68;;;4.20;;
74892;SDS011;63446;56.272;43.922;2023-12-29T11:37:02;8.80;;;3.90;;
74892;SDS011;63446;56.272;43.922;2023-12-29T11:39:50;11.23;;;3.92;;
74892;SDS011;63446;56.272;43.922;2023-12-29T11:42:26;9.18;;;3.33;;
74892;SDS011;63446;56.272;43.922;2023-12-29T11:44:59;8.97;;;3.27;;
74892;SDS011;63446;56.272;43.922;2023-12-29T11:47:53;7.00;;;2.65;;
74892;SDS011;63446;56.272;43.922;2023-12-29T11:50:30;8.63;;;3.03;;
74892;SDS011;63446;56.272;43.922;2023-12-29T11:52:57;8.98;;;3.05;;
74892;SDS011;63446;56.272;43.922;2023-12-29T11:55:37;8.52;;;3.10;;
74892;SDS011;63446;56.272;43.922;2023-12-29T12:00:49;7.80;;;2.80;;
74892;SDS011;63446;56.272;43.922;2023-12-29T12:03:26;8.30;;;2.85;;
74892;SDS011;63446;56.272;43.922;2023-12-29T12:05:54;6.53;;;2.83;;
74892;SDS011;63446;56.272;43.922;2023-12-29T12:08:29;6.65;;;2.63;;
74892;SDS011;63446;56.272;43.922;2023-12-29T12:10:57;8.23;;;3.37;;
74892;SDS011;63446;56.272;43.922;2023-12-29T12:13:58;7.75;;;2.92;;
74892;SDS011;63446;56.272;43.922;2023-12-29T12:17:07;6.78;;;3.08;;
74892;SDS011;63446;56.272;43.922;2023-12-29T12:19:16;8.32;;;3.03;;
74892;SDS011;63446;56.272;43.922;2023-12-29T12:21:45;10.98;;;3.97;;
74892;SDS011;63446;56.272;43.922;2023-12-29T12:24:17;9.87;;;3.73;;
74892;SDS011;63446;56.272;43.922;2023-12-29T12:26:45;10.75;;;3.03;;
74892;SDS011;63446;56.272;43.922;2023-12-29T12:29:12;9.85;;;3.38;;
74892;SDS011;63446;56.272;43.922;2023-12-29T12:31:55;8.48;;;3.45;;
74892;SDS011;63446;56.272;43.922;2023-12-29T12:34:23;9.32;;;3.28;;
74892;SDS011;63446;56.272;43.922;2023-12-29T12:36:52;9.13;;;3.13;;
74892;SDS011;63446;56.272;43.922;2023-12-29T12:39:21;13.40;;;3.97;;
74892;SDS011;63446;56.272;43.922;2023-12-29T12:41:48;14.93;;;4.50;;
74892;SDS011;63446;56.272;43.922;2023-12-29T12:44:15;12.02;;;4.90;;
74892;SDS011;63446;56.272;43.922;2023-12-29T12:46:48;13.25;;;5.05;;
74892;SDS011;63446;56.272;43.922;2023-12-29T12:49:19;9.07;;;3.40;;
74892;SDS011;63446;56.272;43.922;2023-12-29T12:51:47;8.40;;;3.05;;
74892;SDS011;63446;56.272;43.922;2023-12-29T12:54:15;10.85;;;3.45;;
74892;SDS011;63446;56.272;43.922;2023-12-29T12:56:47;10.32;;;3.05;;
74892;SDS011;63446;56.272;43.922;2023-12-29T12:59:13;8.20;;;2.90;;
74892;SDS011;63446;56.272;43.922;2023-12-29T13:01:39;9.83;;;3.13;;
74892;SDS011;63446;56.272;43.922;2023-12-29T13:04:07;8.98;;;3.42;;
74892;SDS011;63446;56.272;43.922;2023-12-29T13:06:34;9.60;;;3.38;;
74892;SDS011;63446;56.272;43.922;2023-12-29T13:09:07;8.75;;;3.03;;
74892;SDS011;63446;56.272;43.922;2023-12-29T13:11:37;9.98;;;3.30;;
74892;SDS011;63446;56.272;43.922;2023-12-29T13:14:03;9.63;;;3.47;;
74892;SDS011;63446;56.272;43.922;2023-12-29T13:16:37;8.98;;;3.53;;
74892;SDS011;63446;56.272;43.922;2023-12-29T13:19:17;9.88;;;3.13;;
74892;SDS011;63446;56.272;43.922;2023-12-29T13:21:50;10.50;;;3.80;;
74892;SDS011;63446;56.272;43.922;2023-12-29T13:24:19;8.52;;;3.30;;
74892;SDS011;63446;56.272;43.922;2023-12-29T13:26:46;9.30;;;3.10;;
74892;SDS011;63446;56.272;43.922;2023-12-29T13:29:18;12.20;;;3.60;;
74892;SDS011;63446;56.272;43.922;2023-12-29T13:31:46;9.88;;;3.55;;
74892;SDS011;63446;56.272;43.922;2023-12-29T13:34:17;9.90;;;3.65;;
74892;SDS011;63446;56.272;43.922;2023-12-29T13:36:50;13.05;;;3.45;;
74892;SDS011;63446;56.272;43.922;2023-12-29T13:39:21;9.20;;;3.67;;
74892;SDS011;63446;56.272;43.922;2023-12-29T13:42:11;11.43;;;4.03;;
74892;SDS011;63446;56.272;43.922;2023-12-29T13:44:44;10.27;;;3.80;;
74892;SDS011;63446;56.272;43.922;2023-12-29T13:47:12;12.65;;;4.43;;
74892;SDS011;63446;56.272;43.922;2023-12-29T13:49:39;18.80;;;5.45;;
74892;SDS011;63446;56.272;43.922;2023-12-29T13:52:05;12.57;;;5.10;;
74892;SDS011;63446;56.272;43.922;2023-12-29T13:54:39;14.13;;;3.95;;
74892;SDS011;63446;56.272;43.922;2023-12-29T13:57:07;11.95;;;4.47;;
74892;SDS011;63446;56.272;43.922;2023-12-29T13:59:33;12.82;;;4.93;;
74892;SDS011;63446;56.272;43.922;2023-12-29T14:02:02;15.43;;;4.60;;
74892;SDS011;63446;56.272;43.922;2023-12-29T14:04:44;10.98;;;3.97;;
74892;SDS011;63446;56.272;43.922;2023-12-29T14:07:10;10.23;;;4.50;;
74892;SDS011;63446;56.272;43.922;2023-12-29T14:09:37;11.98;;;4.15;;
74892;SDS011;63446;56.272;43.922;2023-12-29T14:12:05;10.77;;;3.70;;
74892;SDS011;63446;56.272;43.922;2023-12-29T14:14:31;13.97;;;3.93;;
74892;SDS011;63446;56.272;43.922;2023-12-29T14:16:58;9.77;;;3.58;;
74892;SDS011;63446;56.272;43.922;2023-12-29T14:19:25;9.13;;;3.78;;
74892;SDS011;63446;56.272;43.922;2023-12-29T14:21:51;12.27;;;4.30;;
74892;SDS011;63446;56.272;43.922;2023-12-29T14:24:19;11.07;;;3.72;;
74892;SDS011;63446;56.272;43.922;2023-12-29T14:29:18;11.65;;;4.05;;
74892;SDS011;63446;56.272;43.922;2023-12-29T14:31:45;10.03;;;4.00;;
74892;SDS011;63446;56.272;43.922;2023-12-29T14:34:12;10.27;;;4.10;;
74892;SDS011;63446;56.272;43.922;2023-12-29T14:36:42;9.30;;;4.03;;
74892;SDS011;63446;56.272;43.922;2023-12-29T14:39:09;9.25;;;3.75;;
74892;SDS011;63446;56.272;43.922;2023-12-29T14:41:37;12.77;;;4.50;;
74892;SDS011;63446;56.272;43.922;2023-12-29T14:44:03;10.50;;;3.90;;
74892;SDS011;63446;56.272;43.922;2023-12-29T14:46:29;12.35;;;4.70;;
74892;SDS011;63446;56.272;43.922;2023-12-29T14:48:58;11.25;;;4.30;;